Terminal Aerodrome Forecast
Issued by NWS Sioux Falls, SD

Home | Current Version | Previous Version | Text Only | Print | Product List | Glossary On
Versions: 1 2 3 4 5 6 7 8 9 10 11 12
979
FTUS43 KFSD 210520
TAFHON
TAF
KHON 210520Z 2106/2206 12007KT P6SM SCT140
     FM210900 13010KT P6SM BKN130
     FM211300 14014G21KT P6SM SCT150
     FM211800 18010KT P6SM FEW150
     FM220000 31006KT P6SM FEW200
     FM220500 01007KT P6SM FEW200=

USA.gov is the U.S. government's official web portal to all federal, state and local government web resources and services.